.
WxDataArchive / Data Records for 2015-08-02
2015-08-01 August 2015 2015-08-03

Data Records for Sunday, 02 August 2015

Time	Temp	Chill	HIndex	Humid	Dewpt	 Wind 	HiWind	WindDir	Rain 	Barom
-----	----	-----	------	-----	-----	------	------	-------	-----	-----
00:00	73.7	73.7	73.7	61	59.4	0	1	292	0.00	29.868 
00:05	73.7	73.7	73.7	62	59.9	0	1	292	0.00	29.868 
00:10	73.5	73.5	73.5	62	59.7	0	1	292	0.00	29.868 
00:15	73.5	73.5	73.5	62	59.7	0	1	292	0.00	29.866 
00:20	73.5	73.5	73.5	62	59.7	0	1	292	0.00	29.866 
00:25	73.2	73.2	73.2	63	59.8	0	1	292	0.00	29.866 
00:30	73.2	73.2	73.2	63	59.8	0	1	292	0.00	29.867 
00:35	73.0	73.0	73.0	64	60.1	0	1	292	0.00	29.867 
00:40	72.8	72.8	72.8	64	59.9	0	1	292	0.00	29.867 
00:45	72.7	72.7	72.7	65	60.2	0	1	292	0.00	29.867 
00:50	72.7	72.7	72.7	65	60.2	0	2	292	0.00	29.867 
00:55	72.5	72.5	72.5	65	60.0	0	1	292	0.00	29.867 
01:00	72.5	72.5	72.5	65	60.0	0	1	292	0.00	29.868 
01:05	72.5	72.5	72.5	65	60.0	0	1	292	0.00	29.868 
01:10	72.5	72.5	72.5	65	60.0	0	1	292	0.00	29.868 
01:15	72.3	72.3	72.3	65	59.9	0	2	292	0.00	29.868 
01:20	72.1	72.1	72.1	66	60.1	0	0	---	0.00	29.868 
01:25	72.0	72.0	72.0	66	60.0	0	1	292	0.00	29.868 
01:30	72.0	72.0	72.0	67	60.4	0	1	292	0.00	29.868 
01:35	71.8	71.8	71.8	67	60.2	0	1	292	0.00	29.868 
01:40	71.6	71.6	71.6	67	60.0	0	1	292	0.00	29.868 
01:45	71.5	71.5	71.5	68	60.4	0	1	292	0.00	29.867 
01:50	71.5	71.5	71.5	68	60.4	0	1	292	0.00	29.867 
01:55	71.3	71.3	71.3	69	60.6	0	1	292	0.00	29.867 
02:00	71.3	71.3	71.3	69	60.6	0	2	292	0.00	29.867 
02:05	71.3	71.3	71.3	69	60.6	0	2	292	0.00	29.867 
02:10	71.3	71.3	71.3	70	61.0	0	1	292	0.00	29.867 
02:15	71.1	71.1	71.1	70	60.8	0	1	292	0.00	29.866 
02:20	71.1	71.1	71.1	70	60.8	0	1	292	0.00	29.866 
02:25	71.1	71.1	71.1	71	61.2	0	0	---	0.00	29.866 
02:30	70.9	70.9	70.9	71	61.0	0	1	292	0.00	29.865 
02:35	70.9	70.9	70.9	71	61.0	0	1	292	0.00	29.865 
02:40	70.9	70.9	70.9	71	61.0	0	0	---	0.00	29.865 
02:45	70.8	70.8	70.8	72	61.3	0	0	---	0.00	29.865 
02:50	70.8	70.8	70.8	72	61.3	0	1	292	0.00	29.865 
02:55	70.6	70.6	70.6	72	61.1	0	1	292	0.00	29.865 
03:00	70.4	70.4	70.4	73	61.3	0	1	292	0.00	29.865 
03:05	70.4	70.4	70.4	73	61.3	0	0	---	0.00	29.865 
03:10	70.4	70.4	70.4	73	61.3	0	1	292	0.00	29.865 
03:15	70.4	70.4	70.4	73	61.3	0	0	---	0.00	29.867 
03:20	70.3	70.3	70.3	73	61.2	0	1	292	0.00	29.867 
03:25	70.3	70.3	70.3	73	61.2	0	1	292	0.00	29.867 
03:30	70.3	70.3	70.3	73	61.2	0	1	292	0.00	29.866 
03:35	70.1	70.1	70.1	73	61.0	0	1	292	0.00	29.866 
03:40	70.1	70.1	70.1	74	61.4	0	1	292	0.00	29.866 
03:45	69.9	69.9	69.9	74	61.2	0	0	---	0.00	29.864 
03:50	69.8	69.8	69.8	74	61.1	0	1	292	0.00	29.864 
03:55	69.8	69.8	69.8	74	61.1	0	2	292	0.00	29.864 
04:00	69.8	69.8	69.8	74	61.1	0	1	292	0.00	29.864 
04:05	69.8	69.8	69.8	74	61.1	0	1	292	0.00	29.864 
04:10	69.6	69.6	69.6	74	60.9	0	2	292	0.00	29.864 
04:15	69.6	69.6	69.6	75	61.3	0	1	292	0.00	29.865 
04:20	69.6	69.6	69.6	75	61.3	0	1	292	0.00	29.865 
04:25	69.4	69.4	69.4	75	61.1	0	1	292	0.00	29.865 
04:30	69.4	69.4	69.4	75	61.1	0	1	292	0.00	29.860 
04:35	69.4	69.4	69.4	75	61.1	0	0	---	0.00	29.860 
04:40	69.4	69.4	69.4	75	61.1	0	1	292	0.00	29.860 
04:45	69.4	69.4	69.4	75	61.1	0	1	292	0.00	29.858 
04:50	69.4	69.4	69.4	75	61.1	0	1	292	0.00	29.858 
04:55	69.3	69.3	69.3	75	61.0	0	0	---	0.00	29.858 
05:00	69.3	69.3	69.3	76	61.4	0	1	292	0.00	29.855 
05:05	69.3	69.3	69.3	76	61.4	0	0	---	0.00	29.855 
05:10	69.3	69.3	69.3	76	61.4	0	1	292	0.00	29.855 
05:15	69.1	69.1	69.1	76	61.2	0	1	292	0.00	29.856 
05:20	69.3	69.3	69.3	76	61.4	0	1	292	0.00	29.856 
05:25	69.3	69.3	69.3	76	61.4	0	1	292	0.00	29.856 
05:30	69.1	69.1	69.1	76	61.2	0	0	---	0.00	29.858 
05:35	69.1	69.1	69.1	76	61.2	0	2	292	0.00	29.858 
05:40	69.1	69.1	69.1	76	61.2	0	1	292	0.00	29.858 
05:45	68.9	68.9	68.9	76	61.0	0	1	292	0.00	29.860 
05:50	68.9	68.9	68.9	77	61.4	0	1	292	0.00	29.860 
05:55	69.1	69.1	69.1	76	61.2	0	2	292	0.00	29.860 
06:00	69.3	69.3	69.3	76	61.4	0	1	292	0.00	29.865 
06:05	69.3	69.3	69.3	76	61.4	0	1	292	0.00	29.865 
06:10	69.3	69.3	69.3	76	61.4	0	1	292	0.00	29.865 
06:15	69.1	69.1	69.1	76	61.2	0	1	292	0.00	29.867 
06:20	69.1	69.1	69.1	76	61.2	0	2	292	0.00	29.867 
06:25	68.9	68.9	68.9	76	61.0	0	1	292	0.00	29.867 
06:30	68.9	68.9	68.9	77	61.4	0	1	292	0.00	29.869 
06:35	68.8	68.8	68.8	77	61.3	0	1	292	0.00	29.869 
06:40	68.6	68.6	68.6	77	61.1	0	1	292	0.00	29.869 
06:45	68.6	68.6	68.6	77	61.1	0	0	---	0.00	29.871 
06:50	68.4	68.4	68.4	78	61.3	0	1	292	0.00	29.871 
06:55	68.4	68.4	68.4	78	61.3	0	1	292	0.00	29.871 
07:00	68.4	68.4	68.4	78	61.3	0	1	292	0.00	29.873 
07:05	68.4	68.4	68.4	78	61.3	0	1	292	0.00	29.873 
07:10	68.4	68.4	68.4	78	61.3	0	1	292	0.00	29.873 
07:15	68.4	68.4	68.4	78	61.3	0	1	292	0.00	29.872 
07:20	68.4	68.4	68.4	78	61.3	0	1	292	0.00	29.872 
07:25	68.6	68.6	68.6	78	61.5	0	1	292	0.00	29.872 
07:30	68.8	68.8	68.8	78	61.7	0	1	292	0.00	29.871 
07:35	68.9	68.9	68.9	78	61.7	0	1	292	0.00	29.871 
07:40	69.1	69.1	69.1	78	61.9	0	2	292	0.00	29.871 
07:45	69.3	69.3	69.3	77	61.8	0	3	292	0.00	29.871 
07:50	69.6	69.6	69.6	77	62.1	0	2	292	0.00	29.871 
07:55	69.9	69.9	69.9	77	62.3	0	2	292	0.00	29.871 
08:00	70.3	70.3	70.3	76	62.4	0	2	292	0.00	29.871 
08:05	70.6	70.6	70.6	76	62.7	0	2	292	0.00	29.871 
08:10	71.1	71.1	71.1	75	62.8	1	3	292	0.00	29.871 
08:15	71.5	71.5	71.5	74	62.8	1	3	292	0.00	29.875 
08:20	72.0	72.0	72.0	74	63.2	0	3	292	0.00	29.875 
08:25	72.3	72.3	72.3	73	63.1	0	2	292	0.00	29.875 
08:30	72.7	72.7	72.7	72	63.1	1	3	292	0.00	29.876 
08:35	73.0	73.0	73.0	72	63.4	0	2	292	0.00	29.876 
08:40	73.3	73.3	73.3	71	63.3	0	2	292	0.00	29.876 
08:45	73.7	73.7	73.7	71	63.7	0	2	292	0.00	29.878 
08:50	73.9	73.9	73.9	71	63.9	1	3	292	0.00	29.878 
08:55	74.0	74.0	74.0	71	64.0	1	3	292	0.00	29.878 
09:00	74.4	74.4	74.4	72	64.8	0	2	292	0.00	29.881 
09:05	74.7	74.7	74.7	71	64.7	1	3	292	0.00	29.881 
09:10	75.1	75.1	76.8	70	64.6	1	4	292	0.00	29.881 
09:15	75.3	75.3	77.0	70	64.8	0	2	292	0.00	29.882 
09:20	75.6	75.6	77.2	70	65.1	0	2	292	0.00	29.882 
09:25	76.1	76.1	77.8	70	65.6	0	1	292	0.00	29.882 
09:30	76.5	76.5	78.2	69	65.6	0	2	292	0.00	29.880 
09:35	76.5	76.5	78.3	67	64.7	0	3	292	0.00	29.880 
09:40	76.7	76.7	78.5	68	65.3	0	3	292	0.00	29.880 
09:45	76.8	76.8	78.6	68	65.4	0	1	292	0.00	29.876 
09:50	77.2	77.2	79.0	67	65.4	0	3	292	0.00	29.876 
09:55	77.4	77.4	79.2	67	65.6	0	2	292	0.00	29.876 
10:00	77.6	77.6	79.5	68	66.2	0	2	292	0.00	29.871 
10:05	77.9	77.9	79.9	69	66.9	0	2	292	0.00	29.871 
10:10	78.3	78.3	80.3	67	66.4	0	2	292	0.00	29.871 
10:15	78.8	78.8	80.9	67	66.9	0	1	292	0.00	29.867 
10:20	79.4	79.4	81.6	65	66.6	0	2	292	0.00	29.867 
10:25	79.9	79.9	82.1	64	66.6	0	1	292	0.00	29.867 
10:30	80.5	80.5	82.8	63	66.7	0	3	270	0.00	29.864 
10:35	80.5	80.5	82.8	63	66.7	0	2	270	0.00	29.864 
10:40	80.1	80.1	82.4	64	66.8	1	3	270	0.00	29.864 
10:45	80.3	80.3	82.8	65	67.4	0	2	270	0.00	29.866 
10:50	80.5	80.5	83.1	65	67.6	1	2	270	0.00	29.866 
10:55	80.3	80.3	82.7	64	67.0	1	2	270	0.00	29.866 
11:00	80.7	80.7	82.9	62	66.4	0	2	248	0.00	29.865 
11:05	80.9	80.9	83.2	62	66.6	1	3	248	0.00	29.865 
11:10	80.9	80.9	83.2	62	66.6	0	3	248	0.00	29.865 
11:15	80.9	80.9	83.4	63	67.1	1	3	248	0.00	29.863 
11:20	81.2	81.2	84.1	65	68.3	0	2	248	0.00	29.863 
11:25	82.0	82.0	84.8	62	67.7	0	2	270	0.00	29.863 
11:30	82.4	82.4	85.4	62	68.0	0	2	270	0.00	29.860 
11:35	82.6	82.6	85.5	61	67.8	0	2	270	0.00	29.860 
11:40	82.8	82.8	85.6	60	67.5	1	5	270	0.00	29.860 
11:45	83.2	83.2	86.0	59	67.4	0	2	90	0.00	29.855 
11:50	83.2	83.2	85.8	58	66.9	1	3	90	0.00	29.855 
11:55	82.8	82.8	85.4	59	67.0	0	3	112	0.00	29.855 
12:00	82.8	82.8	85.4	59	67.0	0	2	112	0.00	29.848 
12:05	83.2	83.2	86.0	59	67.4	0	2	112	0.00	29.848 
12:10	83.4	83.4	86.3	59	67.5	0	2	68	0.00	29.848 
12:15	83.6	83.6	86.4	58	67.2	0	2	22	0.00	29.845 
12:20	83.8	83.8	86.4	57	66.9	1	3	315	0.00	29.845 
12:25	83.8	83.8	86.2	56	66.4	1	4	292	0.00	29.845 
12:30	83.6	83.6	85.9	56	66.2	2	5	270	0.00	29.846 
12:35	83.8	83.8	86.7	58	67.4	1	4	270	0.00	29.846 
12:40	84.0	84.0	86.3	55	66.1	1	4	270	0.00	29.846 
12:45	84.1	84.1	86.4	55	66.2	1	3	270	0.00	29.838 
12:50	84.5	84.5	87.8	58	68.1	1	4	270	0.00	29.838 
12:55	84.9	84.9	87.3	54	66.4	1	2	315	0.00	29.838 
13:00	84.9	84.9	87.1	53	65.8	1	4	248	0.00	29.832 
13:05	84.9	84.9	87.1	53	65.8	1	5	248	0.00	29.832 
13:10	85.1	85.1	87.4	53	66.0	1	6	270	0.00	29.832 
13:15	85.7	85.7	88.3	53	66.6	0	1	270	0.00	29.828 
13:20	86.1	86.1	88.0	50	65.3	1	4	270	0.00	29.828 
13:25	86.3	86.3	88.0	49	64.9	1	4	292	0.00	29.828 
13:30	86.5	86.5	88.1	48	64.4	1	3	292	0.00	29.816 
13:35	86.5	86.5	88.1	48	64.4	1	4	292	0.00	29.816 
13:40	87.0	87.0	88.5	47	64.3	1	3	292	0.00	29.816 
13:45	87.0	87.0	88.5	47	64.3	1	4	270	0.00	29.812 
13:50	87.2	87.2	88.5	46	63.9	1	5	292	0.00	29.812 
13:55	87.2	87.2	88.2	45	63.2	1	4	292	0.00	29.812 
14:00	87.4	87.4	88.8	46	64.0	1	4	292	0.00	29.810 
14:05	87.8	87.8	88.8	44	63.1	1	5	315	0.00	29.810 
14:10	88.0	88.0	88.7	43	62.7	2	5	292	0.00	29.810 
14:15	88.0	88.0	88.7	43	62.7	1	6	270	0.00	29.803 
14:20	88.4	88.4	89.6	44	63.7	1	3	270	0.00	29.803 
14:25	88.6	88.6	89.9	44	63.9	1	3	270	0.00	29.803 
14:30	88.8	88.8	90.2	44	64.0	1	5	292	0.00	29.797 
14:35	88.8	88.8	89.6	42	62.7	1	4	315	0.00	29.797 
14:40	89.0	89.0	89.9	42	62.9	1	4	315	0.00	29.797 
14:45	89.0	89.0	89.9	42	62.9	1	5	90	0.00	29.795 
14:50	89.3	89.3	90.0	41	62.5	1	3	248	0.00	29.795 
14:55	89.3	89.3	90.0	41	62.5	1	4	292	0.00	29.795 
15:00	89.3	89.3	90.0	41	62.5	1	5	90	0.00	29.787 
15:05	89.5	89.5	90.3	41	62.6	1	4	292	0.00	29.787 
15:10	89.7	89.7	89.6	38	60.7	1	4	292	0.00	29.787 
15:15	89.5	89.5	89.6	39	61.2	2	6	248	0.00	29.785 
15:20	89.5	89.5	90.3	41	62.6	1	5	338	0.00	29.785 
15:25	89.7	89.7	90.9	42	63.5	1	4	270	0.00	29.785 
15:30	89.7	89.7	90.6	41	62.8	1	6	270	0.00	29.778 
15:35	89.7	89.7	90.2	40	62.1	2	4	270	0.00	29.778 
15:40	89.9	89.9	90.5	40	62.3	1	2	270	0.00	29.778 
15:45	89.9	89.9	89.6	37	60.1	2	5	270	0.00	29.770 
15:50	89.9	89.9	91.2	42	63.7	1	4	270	0.00	29.770 
15:55	90.1	90.1	90.5	39	61.8	1	4	270	0.00	29.770 
16:00	89.9	89.9	89.6	37	60.1	2	7	270	0.00	29.767 
16:05	89.9	89.9	89.9	38	60.8	1	5	270	0.00	29.767 
16:10	89.9	89.9	90.5	40	62.3	2	5	270	0.00	29.767 
16:15	90.1	90.1	90.8	40	62.5	1	4	292	0.00	29.757 
16:20	90.1	90.1	90.8	40	62.5	1	4	202	0.00	29.757 
16:25	90.3	90.3	90.8	39	61.9	1	5	248	0.00	29.757 
16:30	90.3	90.3	90.8	39	61.9	1	6	292	0.00	29.752 
16:35	90.3	90.3	90.8	39	61.9	1	4	292	0.00	29.752 
16:40	90.3	90.3	90.8	39	61.9	1	5	112	0.00	29.752 
16:45	90.3	90.3	90.8	39	61.9	1	4	270	0.00	29.750 
16:50	90.1	90.1	90.8	40	62.5	1	4	292	0.00	29.750 
16:55	89.9	89.9	90.5	40	62.3	1	4	292	0.00	29.750 
17:00	89.9	89.9	90.5	40	62.3	1	5	315	0.00	29.750 
17:05	90.1	90.1	91.2	41	63.2	1	3	270	0.00	29.750 
17:10	89.9	89.9	90.5	40	62.3	1	4	292	0.00	29.750 
17:15	89.9	89.9	91.2	42	63.7	1	4	248	0.00	29.750 
17:20	89.7	89.7	90.6	41	62.8	1	3	270	0.00	29.750 
17:25	89.3	89.3	89.7	40	61.8	2	5	270	0.00	29.750 
17:30	89.3	89.3	89.7	40	61.8	2	7	292	0.00	29.753 
17:35	89.5	89.5	90.0	40	61.9	2	5	292	0.00	29.753 
17:40	89.9	89.9	90.2	39	61.6	1	4	270	0.00	29.753 
17:45	90.1	90.1	90.2	38	61.0	2	4	270	0.00	29.746 
17:50	89.9	89.9	90.2	39	61.6	1	3	248	0.00	29.746 
17:55	89.9	89.9	91.2	42	63.7	1	3	248	0.00	29.746 
18:00	89.7	89.7	90.9	42	63.5	1	5	248	0.00	29.735 
18:05	89.3	89.3	90.3	42	63.2	1	3	248	0.00	29.735 
18:10	88.6	88.6	89.9	44	63.9	1	4	270	0.00	29.735 
18:15	88.2	88.2	89.7	45	64.1	1	5	270	0.00	29.724 
18:20	88.0	88.0	89.4	45	64.0	1	3	270	0.00	29.724 
18:25	87.4	87.4	88.5	45	63.4	1	6	270	0.00	29.724 
18:30	87.2	87.2	88.5	46	63.9	1	4	292	0.00	29.723 
18:35	87.0	87.0	88.5	47	64.3	1	7	292	0.00	29.723 
18:40	86.5	86.5	87.8	47	63.8	1	3	248	0.00	29.723 
18:45	86.3	86.3	87.8	48	64.3	1	5	248	0.00	29.720 
18:50	86.3	86.3	88.0	49	64.9	1	3	248	0.00	29.720 
18:55	86.1	86.1	88.0	50	65.3	1	3	270	0.00	29.720 
19:00	86.1	86.1	88.0	50	65.3	0	2	270	0.00	29.720 
19:05	85.7	85.7	87.4	50	64.9	1	4	270	0.00	29.720 
19:10	85.5	85.5	87.4	51	65.3	1	4	270	0.00	29.720 
19:15	85.5	85.5	87.2	50	64.7	1	4	292	0.00	29.705 
19:20	85.3	85.3	87.1	51	65.1	1	6	292	0.00	29.705 
19:25	85.1	85.1	86.9	51	64.9	1	3	292	0.00	29.705 
19:30	84.9	84.9	86.8	52	65.3	0	2	270	0.00	29.708 
19:35	84.7	84.7	86.5	52	65.1	1	5	270	0.00	29.708 
19:40	84.7	84.7	86.5	52	65.1	1	4	315	0.00	29.708 
19:45	84.7	84.7	86.5	52	65.1	1	3	0	0.00	29.711 
19:50	84.5	84.5	86.3	52	64.9	1	3	315	0.00	29.711 
19:55	84.3	84.3	86.2	53	65.3	0	2	270	0.00	29.711 
20:00	84.1	84.1	85.9	53	65.1	0	1	270	0.00	29.717 
20:05	84.0	84.0	86.0	54	65.5	0	3	270	0.00	29.717 
20:10	84.0	84.0	86.3	55	66.1	0	2	270	0.00	29.717 
20:15	84.0	84.0	86.3	55	66.1	0	3	270	0.00	29.710 
20:20	83.8	83.8	86.0	55	65.9	0	3	270	0.00	29.710 
20:25	83.8	83.8	86.0	55	65.9	0	2	270	0.00	29.710 
20:30	83.6	83.6	85.7	55	65.7	0	3	270	0.00	29.704 
20:35	83.4	83.4	85.4	55	65.5	0	2	292	0.00	29.704 
20:40	83.2	83.2	85.3	56	65.8	0	2	292	0.00	29.704 
20:45	83.0	83.0	85.1	56	65.7	0	2	292	0.00	29.706 
20:50	82.8	82.8	84.8	56	65.5	1	4	315	0.00	29.706 
20:55	82.8	82.8	85.0	57	66.0	0	2	315	0.00	29.706 
21:00	82.6	82.6	84.7	57	65.8	1	3	270	0.00	29.704 
21:05	82.4	82.4	84.4	57	65.6	1	3	248	0.00	29.704 
21:10	82.4	82.4	84.6	58	66.1	1	3	248	0.00	29.704 
21:15	82.2	82.2	84.3	58	65.9	0	3	270	0.00	29.703 
21:20	82.2	82.2	84.3	58	65.9	0	2	270	0.00	29.703 
21:25	82.0	82.0	84.1	58	65.7	1	3	270	0.00	29.703 
21:30	82.0	82.0	84.1	58	65.7	0	2	292	0.00	29.699 
21:35	81.8	81.8	83.8	58	65.6	0	2	292	0.00	29.699 
21:40	81.8	81.8	83.8	58	65.6	1	4	292	0.00	29.699 
21:45	81.6	81.6	83.5	58	65.4	0	3	292	0.00	29.695 
21:50	81.6	81.6	83.5	58	65.4	1	4	270	0.00	29.695 
21:55	81.4	81.4	83.3	58	65.2	1	3	270	0.00	29.695 
22:00	81.2	81.2	83.0	58	65.0	0	3	270	0.00	29.691 
22:05	81.1	81.1	82.9	58	64.9	0	1	315	0.00	29.691 
22:10	80.7	80.7	82.5	59	65.0	0	2	315	0.00	29.691 
22:15	80.5	80.5	82.4	60	65.3	0	1	315	0.00	29.688 
22:20	80.1	80.1	82.0	61	65.4	0	2	315	0.00	29.688 
22:25	79.9	79.9	81.9	62	65.7	1	3	315	0.00	29.688 
22:30	79.8	79.8	81.8	62	65.6	0	3	270	0.00	29.692 
22:35	79.6	79.6	81.5	62	65.4	0	2	248	0.00	29.692 
22:40	79.4	79.4	81.3	62	65.2	0	4	248	0.00	29.692 
22:45	79.4	79.4	81.3	62	65.2	0	4	315	0.00	29.686 
22:50	79.4	79.4	81.4	63	65.7	0	3	315	0.00	29.686 
22:55	79.2	79.2	81.1	63	65.5	0	2	270	0.00	29.686 
23:00	79.2	79.2	81.1	63	65.5	0	3	270	0.00	29.690 
23:05	79.2	79.2	81.1	63	65.5	0	2	270	0.00	29.690 
23:10	79.2	79.2	81.1	63	65.5	1	4	292	0.00	29.690 
23:15	79.2	79.2	81.1	63	65.5	1	10	112	0.00	29.694 
23:20	79.0	79.0	80.9	63	65.3	1	5	270	0.00	29.694 
23:25	79.0	79.0	80.9	63	65.3	1	3	248	0.00	29.694 
23:30	79.0	79.0	81.0	64	65.8	0	3	248	0.00	29.701 
23:35	79.0	79.0	81.0	64	65.8	0	2	248	0.00	29.701 
23:40	78.8	78.8	80.7	64	65.6	0	3	248	0.00	29.701 
23:45	78.8	78.8	80.7	64	65.6	1	3	248	0.00	29.710 
23:50	79.0	79.0	81.0	64	65.8	0	3	248	0.00	29.710 
23:55	78.8	78.8	80.7	64	65.6	0	2	248	0.00	29.710 

CoCoRaHS
IN-AL-39
A2 Web Hosting
Creative Commons License
GoDaddy
search engine by freefind advanced

loaded 2018-11-13 01:32:39 • last modified 2010-11-18 10:43:29
Privacy PolicyDisclaimer
• wx.awcolley.com is powered by PmWiki v.2002016 •
• all content (unless otherwise noted) © 2018 A W Colley